sensor_id;sensor_type;location;lat;lon;timestamp;P1;durP1;ratioP1;P2;durP2;ratioP2
62535;SDS011;63050;47.514;18.920;2023-09-12T00:02:47;8.60;;;4.60;;
62535;SDS011;63050;47.514;18.920;2023-09-12T00:07:51;7.30;;;4.60;;
62535;SDS011;63050;47.514;18.920;2023-09-12T00:12:54;12.30;;;5.20;;
62535;SDS011;63050;47.514;18.920;2023-09-12T00:17:56;10.90;;;5.50;;
62535;SDS011;63050;47.514;18.920;2023-09-12T00:22:57;10.50;;;4.90;;
62535;SDS011;63050;47.514;18.920;2023-09-12T00:27:59;7.60;;;5.30;;
62535;SDS011;63050;47.514;18.920;2023-09-12T00:33:01;11.10;;;5.30;;
62535;SDS011;63050;47.514;18.920;2023-09-12T00:38:02;11.70;;;5.30;;
62535;SDS011;63050;47.514;18.920;2023-09-12T00:43:04;11.90;;;6.10;;
62535;SDS011;63050;47.514;18.920;2023-09-12T00:48:05;11.00;;;5.70;;
62535;SDS011;63050;47.514;18.920;2023-09-12T00:53:07;13.50;;;6.30;;
62535;SDS011;63050;47.514;18.920;2023-09-12T00:58:09;15.00;;;6.10;;
62535;SDS011;63050;47.514;18.920;2023-09-12T01:03:11;11.10;;;5.00;;
62535;SDS011;63050;47.514;18.920;2023-09-12T01:08:13;8.30;;;4.80;;
62535;SDS011;63050;47.514;18.920;2023-09-12T01:13:15;7.40;;;5.10;;
62535;SDS011;63050;47.514;18.920;2023-09-12T01:18:17;8.20;;;5.60;;
62535;SDS011;63050;47.514;18.920;2023-09-12T01:28:49;7.60;;;4.80;;
62535;SDS011;63050;47.514;18.920;2023-09-12T01:33:55;9.00;;;4.80;;
62535;SDS011;63050;47.514;18.920;2023-09-12T01:38:58;9.30;;;5.40;;
62535;SDS011;63050;47.514;18.920;2023-09-12T01:44:00;7.30;;;4.60;;
62535;SDS011;63050;47.514;18.920;2023-09-12T01:49:02;8.30;;;5.30;;
62535;SDS011;63050;47.514;18.920;2023-09-12T01:54:05;10.50;;;4.70;;
62535;SDS011;63050;47.514;18.920;2023-09-12T01:59:07;5.30;;;4.30;;
62535;SDS011;63050;47.514;18.920;2023-09-12T02:04:09;8.40;;;5.00;;
62535;SDS011;63050;47.514;18.920;2023-09-12T02:09:11;9.00;;;5.30;;
62535;SDS011;63050;47.514;18.920;2023-09-12T02:14:13;7.90;;;5.00;;
62535;SDS011;63050;47.514;18.920;2023-09-12T02:19:15;7.70;;;4.90;;
62535;SDS011;63050;47.514;18.920;2023-09-12T02:24:17;8.30;;;4.70;;
62535;SDS011;63050;47.514;18.920;2023-09-12T02:29:22;10.30;;;4.80;;
62535;SDS011;63050;47.514;18.920;2023-09-12T02:34:23;10.60;;;5.70;;
62535;SDS011;63050;47.514;18.920;2023-09-12T02:39:25;7.60;;;5.40;;
62535;SDS011;63050;47.514;18.920;2023-09-12T02:44:27;8.70;;;5.40;;
62535;SDS011;63050;47.514;18.920;2023-09-12T02:49:28;8.70;;;5.20;;
62535;SDS011;63050;47.514;18.920;2023-09-12T02:54:30;6.50;;;5.10;;
62535;SDS011;63050;47.514;18.920;2023-09-12T02:59:32;8.30;;;5.20;;
62535;SDS011;63050;47.514;18.920;2023-09-12T03:04:34;7.00;;;4.80;;
62535;SDS011;63050;47.514;18.920;2023-09-12T03:09:36;8.60;;;5.30;;
62535;SDS011;63050;47.514;18.920;2023-09-12T03:14:39;10.00;;;5.30;;
62535;SDS011;63050;47.514;18.920;2023-09-12T03:19:40;9.00;;;4.80;;
62535;SDS011;63050;47.514;18.920;2023-09-12T03:24:42;6.30;;;4.60;;
62535;SDS011;63050;47.514;18.920;2023-09-12T03:29:46;8.10;;;4.20;;
62535;SDS011;63050;47.514;18.920;2023-09-12T03:34:48;10.10;;;4.70;;
62535;SDS011;63050;47.514;18.920;2023-09-12T03:39:50;6.30;;;4.30;;
62535;SDS011;63050;47.514;18.920;2023-09-12T03:44:51;8.80;;;4.80;;
62535;SDS011;63050;47.514;18.920;2023-09-12T03:49:53;7.90;;;5.00;;
62535;SDS011;63050;47.514;18.920;2023-09-12T03:54:55;7.40;;;4.90;;
62535;SDS011;63050;47.514;18.920;2023-09-12T03:59:56;8.40;;;5.10;;
62535;SDS011;63050;47.514;18.920;2023-09-12T04:04:59;8.50;;;5.00;;
62535;SDS011;63050;47.514;18.920;2023-09-12T04:10:01;8.80;;;5.40;;
62535;SDS011;63050;47.514;18.920;2023-09-12T04:15:04;8.90;;;5.00;;
62535;SDS011;63050;47.514;18.920;2023-09-12T04:20:06;10.60;;;5.00;;
62535;SDS011;63050;47.514;18.920;2023-09-12T04:25:08;7.00;;;4.70;;
62535;SDS011;63050;47.514;18.920;2023-09-12T04:30:09;11.50;;;5.80;;
62535;SDS011;63050;47.514;18.920;2023-09-12T04:35:11;11.40;;;5.90;;
62535;SDS011;63050;47.514;18.920;2023-09-12T04:40:12;9.40;;;5.30;;
62535;SDS011;63050;47.514;18.920;2023-09-12T04:45:15;12.90;;;6.10;;
62535;SDS011;63050;47.514;18.920;2023-09-12T04:50:17;6.70;;;5.20;;
62535;SDS011;63050;47.514;18.920;2023-09-12T04:55:19;7.30;;;4.80;;
62535;SDS011;63050;47.514;18.920;2023-09-12T05:00:20;11.70;;;5.40;;
62535;SDS011;63050;47.514;18.920;2023-09-12T05:05:22;16.50;;;6.20;;
62535;SDS011;63050;47.514;18.920;2023-09-12T05:10:24;16.10;;;6.00;;
62535;SDS011;63050;47.514;18.920;2023-09-12T05:15:25;11.40;;;5.30;;
62535;SDS011;63050;47.514;18.920;2023-09-12T05:20:27;12.40;;;6.10;;
62535;SDS011;63050;47.514;18.920;2023-09-12T05:25:29;14.40;;;6.30;;
62535;SDS011;63050;47.514;18.920;2023-09-12T05:30:31;15.30;;;6.60;;
62535;SDS011;63050;47.514;18.920;2023-09-12T05:35:32;19.20;;;7.00;;
62535;SDS011;63050;47.514;18.920;2023-09-12T05:40:35;10.40;;;6.60;;
62535;SDS011;63050;47.514;18.920;2023-09-12T05:45:37;10.70;;;6.20;;
62535;SDS011;63050;47.514;18.920;2023-09-12T05:50:38;15.50;;;6.50;;
62535;SDS011;63050;47.514;18.920;2023-09-12T05:55:40;16.70;;;6.60;;
62535;SDS011;63050;47.514;18.920;2023-09-12T06:00:42;22.20;;;6.90;;
62535;SDS011;63050;47.514;18.920;2023-09-12T06:05:44;18.30;;;7.50;;
62535;SDS011;63050;47.514;18.920;2023-09-12T06:10:47;19.10;;;7.70;;
62535;SDS011;63050;47.514;18.920;2023-09-12T06:15:49;34.20;;;9.40;;
62535;SDS011;63050;47.514;18.920;2023-09-12T06:20:51;21.50;;;8.80;;
62535;SDS011;63050;47.514;18.920;2023-09-12T06:25:53;17.60;;;8.30;;
62535;SDS011;63050;47.514;18.920;2023-09-12T06:30:55;15.20;;;6.40;;
62535;SDS011;63050;47.514;18.920;2023-09-12T06:35:57;16.40;;;6.50;;
62535;SDS011;63050;47.514;18.920;2023-09-12T06:41:00;12.90;;;6.60;;
62535;SDS011;63050;47.514;18.920;2023-09-12T06:46:01;16.20;;;7.30;;
62535;SDS011;63050;47.514;18.920;2023-09-12T06:51:07;11.70;;;6.30;;
62535;SDS011;63050;47.514;18.920;2023-09-12T06:56:09;9.50;;;6.10;;
62535;SDS011;63050;47.514;18.920;2023-09-12T07:01:11;12.40;;;6.10;;
62535;SDS011;63050;47.514;18.920;2023-09-12T07:06:13;11.40;;;6.20;;
62535;SDS011;63050;47.514;18.920;2023-09-12T07:11:15;8.80;;;5.40;;
62535;SDS011;63050;47.514;18.920;2023-09-12T07:16:17;10.00;;;5.30;;
62535;SDS011;63050;47.514;18.920;2023-09-12T07:21:18;10.10;;;5.30;;
62535;SDS011;63050;47.514;18.920;2023-09-12T07:26:20;11.20;;;5.60;;
62535;SDS011;63050;47.514;18.920;2023-09-12T07:31:22;13.70;;;6.10;;
62535;SDS011;63050;47.514;18.920;2023-09-12T07:36:24;9.40;;;5.50;;
62535;SDS011;63050;47.514;18.920;2023-09-12T07:41:26;10.00;;;4.70;;
62535;SDS011;63050;47.514;18.920;2023-09-12T07:46:28;7.60;;;5.00;;
62535;SDS011;63050;47.514;18.920;2023-09-12T07:51:30;8.60;;;5.50;;
62535;SDS011;63050;47.514;18.920;2023-09-12T07:56:32;8.60;;;4.70;;
62535;SDS011;63050;47.514;18.920;2023-09-12T08:01:34;7.90;;;4.80;;
62535;SDS011;63050;47.514;18.920;2023-09-12T08:06:35;10.50;;;4.70;;
62535;SDS011;63050;47.514;18.920;2023-09-12T08:11:37;7.00;;;4.70;;
62535;SDS011;63050;47.514;18.920;2023-09-12T08:16:39;10.20;;;4.50;;
62535;SDS011;63050;47.514;18.920;2023-09-12T08:21:41;9.70;;;4.90;;
62535;SDS011;63050;47.514;18.920;2023-09-12T08:26:42;10.30;;;4.30;;
62535;SDS011;63050;47.514;18.920;2023-09-12T08:31:43;9.90;;;4.90;;
62535;SDS011;63050;47.514;18.920;2023-09-12T08:36:48;10.50;;;5.00;;
62535;SDS011;63050;47.514;18.920;2023-09-12T08:41:50;9.40;;;4.90;;
62535;SDS011;63050;47.514;18.920;2023-09-12T08:46:51;12.60;;;5.30;;
62535;SDS011;63050;47.514;18.920;2023-09-12T08:51:53;10.30;;;4.70;;
62535;SDS011;63050;47.514;18.920;2023-09-12T08:56:55;7.10;;;4.50;;
62535;SDS011;63050;47.514;18.920;2023-09-12T09:01:56;10.00;;;3.80;;
62535;SDS011;63050;47.514;18.920;2023-09-12T09:06:59;8.40;;;4.00;;
62535;SDS011;63050;47.514;18.920;2023-09-12T09:12:01;10.50;;;4.80;;
62535;SDS011;63050;47.514;18.920;2023-09-12T09:17:08;9.50;;;4.50;;
62535;SDS011;63050;47.514;18.920;2023-09-12T09:27:25;8.30;;;4.40;;
62535;SDS011;63050;47.514;18.920;2023-09-12T09:32:34;7.70;;;3.90;;
62535;SDS011;63050;47.514;18.920;2023-09-12T09:37:36;8.90;;;4.30;;
62535;SDS011;63050;47.514;18.920;2023-09-12T09:42:39;6.60;;;4.20;;
62535;SDS011;63050;47.514;18.920;2023-09-12T09:47:42;8.80;;;4.00;;
62535;SDS011;63050;47.514;18.920;2023-09-12T09:52:44;9.10;;;4.80;;
62535;SDS011;63050;47.514;18.920;2023-09-12T09:57:45;7.20;;;4.50;;
62535;SDS011;63050;47.514;18.920;2023-09-12T10:02:46;8.10;;;4.20;;
62535;SDS011;63050;47.514;18.920;2023-09-12T10:07:51;7.80;;;3.90;;
62535;SDS011;63050;47.514;18.920;2023-09-12T10:12:57;10.70;;;3.70;;
62535;SDS011;63050;47.514;18.920;2023-09-12T10:18:01;12.10;;;4.40;;
62535;SDS011;63050;47.514;18.920;2023-09-12T10:23:05;10.70;;;4.10;;
62535;SDS011;63050;47.514;18.920;2023-09-12T10:28:11;6.60;;;3.60;;
62535;SDS011;63050;47.514;18.920;2023-09-12T10:33:13;7.60;;;4.40;;
62535;SDS011;63050;47.514;18.920;2023-09-12T10:38:16;6.50;;;4.30;;
62535;SDS011;63050;47.514;18.920;2023-09-12T10:43:18;6.20;;;4.10;;
62535;SDS011;63050;47.514;18.920;2023-09-12T10:48:19;9.90;;;4.30;;
62535;SDS011;63050;47.514;18.920;2023-09-12T10:53:21;6.70;;;3.80;;
62535;SDS011;63050;47.514;18.920;2023-09-12T10:58:25;7.60;;;4.20;;
62535;SDS011;63050;47.514;18.920;2023-09-12T11:13:38;9.30;;;4.60;;
62535;SDS011;63050;47.514;18.920;2023-09-12T11:24:17;10.30;;;4.10;;
62535;SDS011;63050;47.514;18.920;2023-09-12T11:29:21;8.90;;;4.00;;
62535;SDS011;63050;47.514;18.920;2023-09-12T11:34:22;8.60;;;4.60;;
62535;SDS011;63050;47.514;18.920;2023-09-12T11:49:35;20.20;;;3.80;;
62535;SDS011;63050;47.514;18.920;2023-09-12T11:54:38;11.50;;;3.90;;
62535;SDS011;63050;47.514;18.920;2023-09-12T11:59:41;10.70;;;3.70;;
62535;SDS011;63050;47.514;18.920;2023-09-12T12:04:45;16.50;;;4.10;;
62535;SDS011;63050;47.514;18.920;2023-09-12T12:09:47;10.90;;;4.20;;
62535;SDS011;63050;47.514;18.920;2023-09-12T12:14:49;9.40;;;4.10;;
62535;SDS011;63050;47.514;18.920;2023-09-12T12:19:51;12.00;;;3.40;;
62535;SDS011;63050;47.514;18.920;2023-09-12T12:29:56;8.30;;;3.90;;
62535;SDS011;63050;47.514;18.920;2023-09-12T12:35:01;9.40;;;3.60;;
62535;SDS011;63050;47.514;18.920;2023-09-12T12:40:03;11.60;;;3.60;;
62535;SDS011;63050;47.514;18.920;2023-09-12T12:45:16;11.00;;;3.80;;
62535;SDS011;63050;47.514;18.920;2023-09-12T12:50:18;10.60;;;3.80;;
62535;SDS011;63050;47.514;18.920;2023-09-12T12:55:21;12.30;;;4.20;;
62535;SDS011;63050;47.514;18.920;2023-09-12T13:00:22;9.30;;;3.80;;
62535;SDS011;63050;47.514;18.920;2023-09-12T13:05:28;11.70;;;3.70;;
62535;SDS011;63050;47.514;18.920;2023-09-12T13:10:31;6.80;;;3.80;;
62535;SDS011;63050;47.514;18.920;2023-09-12T13:15:33;13.10;;;3.70;;
62535;SDS011;63050;47.514;18.920;2023-09-12T13:20:34;9.20;;;3.90;;
62535;SDS011;63050;47.514;18.920;2023-09-12T13:25:36;8.70;;;3.50;;
62535;SDS011;63050;47.514;18.920;2023-09-12T13:30:37;12.20;;;4.80;;
62535;SDS011;63050;47.514;18.920;2023-09-12T13:35:39;15.30;;;3.70;;
62535;SDS011;63050;47.514;18.920;2023-09-12T13:40:41;13.70;;;3.90;;
62535;SDS011;63050;47.514;18.920;2023-09-12T13:50:44;14.70;;;3.90;;
62535;SDS011;63050;47.514;18.920;2023-09-12T13:55:46;10.00;;;3.90;;
62535;SDS011;63050;47.514;18.920;2023-09-12T14:00:49;14.20;;;4.00;;
62535;SDS011;63050;47.514;18.920;2023-09-12T14:05:51;15.50;;;4.20;;
62535;SDS011;63050;47.514;18.920;2023-09-12T14:10:52;12.20;;;3.90;;
62535;SDS011;63050;47.514;18.920;2023-09-12T14:15:54;13.40;;;3.90;;
62535;SDS011;63050;47.514;18.920;2023-09-12T14:20:56;19.00;;;4.30;;
62535;SDS011;63050;47.514;18.920;2023-09-12T14:25:58;17.50;;;4.20;;
62535;SDS011;63050;47.514;18.920;2023-09-12T14:31:02;17.30;;;4.50;;
62535;SDS011;63050;47.514;18.920;2023-09-12T14:36:07;17.90;;;4.70;;
62535;SDS011;63050;47.514;18.920;2023-09-12T14:41:11;11.40;;;4.00;;
62535;SDS011;63050;47.514;18.920;2023-09-12T14:46:14;12.00;;;3.60;;
62535;SDS011;63050;47.514;18.920;2023-09-12T14:51:17;12.60;;;4.20;;
62535;SDS011;63050;47.514;18.920;2023-09-12T14:56:20;11.80;;;4.10;;
62535;SDS011;63050;47.514;18.920;2023-09-12T15:01:22;10.60;;;3.60;;
62535;SDS011;63050;47.514;18.920;2023-09-12T15:06:25;16.50;;;4.30;;
62535;SDS011;63050;47.514;18.920;2023-09-12T15:16:29;12.20;;;4.20;;
62535;SDS011;63050;47.514;18.920;2023-09-12T15:21:35;12.30;;;4.50;;
62535;SDS011;63050;47.514;18.920;2023-09-12T15:31:39;15.00;;;4.70;;
62535;SDS011;63050;47.514;18.920;2023-09-12T15:36:42;17.60;;;3.90;;
62535;SDS011;63050;47.514;18.920;2023-09-12T15:41:45;15.30;;;4.00;;
62535;SDS011;63050;47.514;18.920;2023-09-12T15:46:48;12.10;;;3.90;;
62535;SDS011;63050;47.514;18.920;2023-09-12T15:51:49;14.20;;;4.50;;
62535;SDS011;63050;47.514;18.920;2023-09-12T15:56:53;14.00;;;5.10;;
62535;SDS011;63050;47.514;18.920;2023-09-12T16:01:57;12.30;;;4.10;;
62535;SDS011;63050;47.514;18.920;2023-09-12T16:06:59;15.80;;;5.00;;
62535;SDS011;63050;47.514;18.920;2023-09-12T16:12:02;14.40;;;4.00;;
62535;SDS011;63050;47.514;18.920;2023-09-12T16:17:06;14.60;;;4.20;;
62535;SDS011;63050;47.514;18.920;2023-09-12T16:22:08;18.00;;;4.80;;
62535;SDS011;63050;47.514;18.920;2023-09-12T16:32:13;19.00;;;4.90;;
62535;SDS011;63050;47.514;18.920;2023-09-12T16:37:15;14.70;;;4.40;;
62535;SDS011;63050;47.514;18.920;2023-09-12T16:42:17;12.90;;;4.80;;
62535;SDS011;63050;47.514;18.920;2023-09-12T16:47:19;9.40;;;4.40;;
62535;SDS011;63050;47.514;18.920;2023-09-12T16:52:21;9.30;;;4.20;;
62535;SDS011;63050;47.514;18.920;2023-09-12T16:57:23;8.70;;;4.60;;
62535;SDS011;63050;47.514;18.920;2023-09-12T17:02:25;16.60;;;4.40;;
62535;SDS011;63050;47.514;18.920;2023-09-12T17:07:27;12.90;;;4.30;;
62535;SDS011;63050;47.514;18.920;2023-09-12T17:12:29;12.90;;;4.10;;
62535;SDS011;63050;47.514;18.920;2023-09-12T17:17:32;16.40;;;4.80;;
62535;SDS011;63050;47.514;18.920;2023-09-12T17:22:33;10.60;;;3.80;;
62535;SDS011;63050;47.514;18.920;2023-09-12T17:27:35;16.40;;;4.70;;
62535;SDS011;63050;47.514;18.920;2023-09-12T17:32:37;10.90;;;4.60;;
62535;SDS011;63050;47.514;18.920;2023-09-12T17:37:39;10.20;;;4.90;;
62535;SDS011;63050;47.514;18.920;2023-09-12T17:42:41;10.50;;;4.10;;
62535;SDS011;63050;47.514;18.920;2023-09-12T17:47:44;8.90;;;3.60;;
62535;SDS011;63050;47.514;18.920;2023-09-12T17:52:48;12.50;;;3.90;;
62535;SDS011;63050;47.514;18.920;2023-09-12T17:57:50;14.50;;;4.00;;
62535;SDS011;63050;47.514;18.920;2023-09-12T18:02:55;14.50;;;4.80;;
62535;SDS011;63050;47.514;18.920;2023-09-12T18:07:56;10.90;;;4.80;;
62535;SDS011;63050;47.514;18.920;2023-09-12T18:12:59;12.40;;;3.90;;
62535;SDS011;63050;47.514;18.920;2023-09-12T18:18:04;8.60;;;3.70;;
62535;SDS011;63050;47.514;18.920;2023-09-12T18:23:06;9.80;;;4.50;;
62535;SDS011;63050;47.514;18.920;2023-09-12T18:28:09;9.30;;;3.80;;
62535;SDS011;63050;47.514;18.920;2023-09-12T18:33:13;13.70;;;4.40;;
62535;SDS011;63050;47.514;18.920;2023-09-12T18:38:18;12.10;;;4.50;;
62535;SDS011;63050;47.514;18.920;2023-09-12T18:43:20;10.60;;;4.00;;
62535;SDS011;63050;47.514;18.920;2023-09-12T18:48:23;18.00;;;4.90;;
62535;SDS011;63050;47.514;18.920;2023-09-12T18:53:30;8.80;;;3.60;;
62535;SDS011;63050;47.514;18.920;2023-09-12T18:58:32;14.90;;;4.10;;
62535;SDS011;63050;47.514;18.920;2023-09-12T19:03:37;8.20;;;4.00;;
62535;SDS011;63050;47.514;18.920;2023-09-12T19:08:48;11.20;;;4.40;;
62535;SDS011;63050;47.514;18.920;2023-09-12T19:13:57;13.20;;;4.20;;
62535;SDS011;63050;47.514;18.920;2023-09-12T19:19:00;15.00;;;5.70;;
62535;SDS011;63050;47.514;18.920;2023-09-12T19:24:02;11.60;;;4.50;;
62535;SDS011;63050;47.514;18.920;2023-09-12T19:29:13;12.50;;;4.40;;
62535;SDS011;63050;47.514;18.920;2023-09-12T19:34:17;13.40;;;3.90;;
62535;SDS011;63050;47.514;18.920;2023-09-12T19:39:19;11.70;;;4.30;;
62535;SDS011;63050;47.514;18.920;2023-09-12T19:44:21;9.40;;;4.10;;
62535;SDS011;63050;47.514;18.920;2023-09-12T19:49:24;9.20;;;3.90;;
62535;SDS011;63050;47.514;18.920;2023-09-12T19:54:26;11.50;;;4.50;;
62535;SDS011;63050;47.514;18.920;2023-09-12T19:59:28;13.40;;;4.00;;
62535;SDS011;63050;47.514;18.920;2023-09-12T20:04:33;14.50;;;4.00;;
62535;SDS011;63050;47.514;18.920;2023-09-12T20:09:35;11.10;;;3.90;;
62535;SDS011;63050;47.514;18.920;2023-09-12T20:14:36;11.90;;;3.90;;
62535;SDS011;63050;47.514;18.920;2023-09-12T20:19:39;14.00;;;4.50;;
62535;SDS011;63050;47.514;18.920;2023-09-12T20:24:41;10.60;;;4.50;;
62535;SDS011;63050;47.514;18.920;2023-09-12T20:29:44;8.10;;;3.50;;
62535;SDS011;63050;47.514;18.920;2023-09-12T20:34:49;12.20;;;4.10;;
62535;SDS011;63050;47.514;18.920;2023-09-12T20:39:50;13.90;;;4.50;;
62535;SDS011;63050;47.514;18.920;2023-09-12T20:45:17;9.90;;;3.90;;
62535;SDS011;63050;47.514;18.920;2023-09-12T20:50:20;11.00;;;3.70;;
62535;SDS011;63050;47.514;18.920;2023-09-12T20:55:30;14.50;;;3.60;;
62535;SDS011;63050;47.514;18.920;2023-09-12T21:00:38;7.90;;;3.70;;
62535;SDS011;63050;47.514;18.920;2023-09-12T21:05:40;8.90;;;3.50;;
62535;SDS011;63050;47.514;18.920;2023-09-12T21:10:44;10.40;;;3.90;;
62535;SDS011;63050;47.514;18.920;2023-09-12T21:15:47;9.00;;;3.60;;
62535;SDS011;63050;47.514;18.920;2023-09-12T21:20:49;13.00;;;4.20;;
62535;SDS011;63050;47.514;18.920;2023-09-12T21:25:50;12.10;;;4.30;;
62535;SDS011;63050;47.514;18.920;2023-09-12T21:30:52;11.10;;;4.30;;
62535;SDS011;63050;47.514;18.920;2023-09-12T21:35:53;10.80;;;3.60;;
62535;SDS011;63050;47.514;18.920;2023-09-12T21:40:56;10.40;;;4.50;;
62535;SDS011;63050;47.514;18.920;2023-09-12T21:45:59;12.20;;;4.00;;
62535;SDS011;63050;47.514;18.920;2023-09-12T21:51:01;10.00;;;3.60;;
62535;SDS011;63050;47.514;18.920;2023-09-12T21:56:02;11.60;;;3.80;;
62535;SDS011;63050;47.514;18.920;2023-09-12T22:01:03;9.90;;;4.10;;
62535;SDS011;63050;47.514;18.920;2023-09-12T22:06:06;9.50;;;3.70;;
62535;SDS011;63050;47.514;18.920;2023-09-12T22:11:11;10.80;;;3.80;;
62535;SDS011;63050;47.514;18.920;2023-09-12T22:16:13;9.40;;;4.10;;
62535;SDS011;63050;47.514;18.920;2023-09-12T22:21:16;10.70;;;4.30;;
62535;SDS011;63050;47.514;18.920;2023-09-12T22:26:18;8.40;;;3.60;;
62535;SDS011;63050;47.514;18.920;2023-09-12T22:31:19;9.70;;;4.20;;
62535;SDS011;63050;47.514;18.920;2023-09-12T22:36:20;9.80;;;3.80;;
62535;SDS011;63050;47.514;18.920;2023-09-12T22:41:21;8.40;;;3.30;;
62535;SDS011;63050;47.514;18.920;2023-09-12T22:46:25;11.50;;;4.30;;
62535;SDS011;63050;47.514;18.920;2023-09-12T22:51:52;9.20;;;3.60;;
62535;SDS011;63050;47.514;18.920;2023-09-12T22:56:54;10.90;;;3.40;;
62535;SDS011;63050;47.514;18.920;2023-09-12T23:01:55;8.10;;;3.40;;
62535;SDS011;63050;47.514;18.920;2023-09-12T23:06:57;7.00;;;3.60;;
62535;SDS011;63050;47.514;18.920;2023-09-12T23:11:58;10.50;;;3.80;;
62535;SDS011;63050;47.514;18.920;2023-09-12T23:17:00;8.70;;;3.30;;
62535;SDS011;63050;47.514;18.920;2023-09-12T23:22:04;9.10;;;3.80;;
62535;SDS011;63050;47.514;18.920;2023-09-12T23:27:05;6.00;;;3.60;;
62535;SDS011;63050;47.514;18.920;2023-09-12T23:32:08;11.80;;;3.40;;
62535;SDS011;63050;47.514;18.920;2023-09-12T23:37:09;10.60;;;3.60;;
62535;SDS011;63050;47.514;18.920;2023-09-12T23:42:10;10.40;;;3.90;;
62535;SDS011;63050;47.514;18.920;2023-09-12T23:47:12;9.00;;;3.90;;
62535;SDS011;63050;47.514;18.920;2023-09-12T23:52:14;11.80;;;3.90;;
62535;SDS011;63050;47.514;18.920;2023-09-12T23:57:16;6.50;;;3.00;;
